sensor_id;sensor_type;location;lat;lon;timestamp;P1;durP1;ratioP1;P2;durP2;ratioP2
16391;SDS011;8305;-33.882;151.134;2022-08-01T00:00:22;2.10;;;0.50;;
16391;SDS011;8305;-33.882;151.134;2022-08-01T00:02:54;1.25;;;0.57;;
16391;SDS011;8305;-33.882;151.134;2022-08-01T00:05:25;1.02;;;0.60;;
16391;SDS011;8305;-33.882;151.134;2022-08-01T00:07:56;0.52;;;0.40;;
16391;SDS011;8305;-33.882;151.134;2022-08-01T00:10:27;0.40;;;0.40;;
16391;SDS011;8305;-33.882;151.134;2022-08-01T00:12:57;0.93;;;0.57;;
16391;SDS011;8305;-33.882;151.134;2022-08-01T00:15:28;1.13;;;0.50;;
16391;SDS011;8305;-33.882;151.134;2022-08-01T00:18:04;0.95;;;0.57;;
16391;SDS011;8305;-33.882;151.134;2022-08-01T00:20:35;1.65;;;0.63;;
16391;SDS011;8305;-33.882;151.134;2022-08-01T00:23:05;3.22;;;0.52;;
16391;SDS011;8305;-33.882;151.134;2022-08-01T00:25:36;0.77;;;0.50;;
16391;SDS011;8305;-33.882;151.134;2022-08-01T00:28:07;0.77;;;0.50;;
16391;SDS011;8305;-33.882;151.134;2022-08-01T00:30:40;0.95;;;0.50;;
16391;SDS011;8305;-33.882;151.134;2022-08-01T00:33:12;1.67;;;0.60;;
16391;SDS011;8305;-33.882;151.134;2022-08-01T00:35:43;2.45;;;0.50;;
16391;SDS011;8305;-33.882;151.134;2022-08-01T00:38:13;2.17;;;0.50;;
16391;SDS011;8305;-33.882;151.134;2022-08-01T00:40:44;3.33;;;0.75;;
16391;SDS011;8305;-33.882;151.134;2022-08-01T00:43:15;3.75;;;1.95;;
16391;SDS011;8305;-33.882;151.134;2022-08-01T00:45:45;3.83;;;0.68;;
16391;SDS011;8305;-33.882;151.134;2022-08-01T00:48:18;4.90;;;0.50;;
16391;SDS011;8305;-33.882;151.134;2022-08-01T00:50:49;0.40;;;0.40;;
16391;SDS011;8305;-33.882;151.134;2022-08-01T00:53:19;0.90;;;0.30;;
16391;SDS011;8305;-33.882;151.134;2022-08-01T00:55:50;0.90;;;0.40;;
16391;SDS011;8305;-33.882;151.134;2022-08-01T00:58:22;1.63;;;0.40;;
16391;SDS011;8305;-33.882;151.134;2022-08-01T01:00:54;0.40;;;0.40;;
16391;SDS011;8305;-33.882;151.134;2022-08-01T01:03:27;2.15;;;0.80;;
16391;SDS011;8305;-33.882;151.134;2022-08-01T01:06:01;1.27;;;0.40;;
16391;SDS011;8305;-33.882;151.134;2022-08-01T01:08:41;1.35;;;0.40;;
16391;SDS011;8305;-33.882;151.134;2022-08-01T01:11:16;2.55;;;0.65;;
16391;SDS011;8305;-33.882;151.134;2022-08-01T01:13:56;1.27;;;0.45;;
16391;SDS011;8305;-33.882;151.134;2022-08-01T01:16:30;0.40;;;0.30;;
16391;SDS011;8305;-33.882;151.134;2022-08-01T01:19:04;2.03;;;0.60;;
16391;SDS011;8305;-33.882;151.134;2022-08-01T01:21:54;0.75;;;0.43;;
16391;SDS011;8305;-33.882;151.134;2022-08-01T01:24:45;0.98;;;0.60;;
16391;SDS011;8305;-33.882;151.134;2022-08-01T01:27:29;0.38;;;0.35;;
16391;SDS011;8305;-33.882;151.134;2022-08-01T01:30:15;0.77;;;0.40;;
16391;SDS011;8305;-33.882;151.134;2022-08-01T01:32:48;0.90;;;0.57;;
16391;SDS011;8305;-33.882;151.134;2022-08-01T01:35:22;4.97;;;1.25;;
16391;SDS011;8305;-33.882;151.134;2022-08-01T01:37:58;1.17;;;0.40;;
16391;SDS011;8305;-33.882;151.134;2022-08-01T01:40:33;0.47;;;0.40;;
16391;SDS011;8305;-33.882;151.134;2022-08-01T01:43:05;0.82;;;0.50;;
16391;SDS011;8305;-33.882;151.134;2022-08-01T01:45:42;0.30;;;0.30;;
16391;SDS011;8305;-33.882;151.134;2022-08-01T01:48:16;1.80;;;0.40;;
16391;SDS011;8305;-33.882;151.134;2022-08-01T01:50:49;0.90;;;0.40;;
16391;SDS011;8305;-33.882;151.134;2022-08-01T01:53:22;3.20;;;0.50;;
16391;SDS011;8305;-33.882;151.134;2022-08-01T01:55:55;0.52;;;0.45;;
16391;SDS011;8305;-33.882;151.134;2022-08-01T01:58:27;0.82;;;0.30;;
16391;SDS011;8305;-33.882;151.134;2022-08-01T02:01:02;1.38;;;0.45;;
16391;SDS011;8305;-33.882;151.134;2022-08-01T02:03:35;1.35;;;0.50;;
16391;SDS011;8305;-33.882;151.134;2022-08-01T02:06:07;2.08;;;0.40;;
16391;SDS011;8305;-33.882;151.134;2022-08-01T02:08:40;1.08;;;0.60;;
16391;SDS011;8305;-33.882;151.134;2022-08-01T02:11:13;1.00;;;0.40;;
16391;SDS011;8305;-33.882;151.134;2022-08-01T02:13:48;0.60;;;0.43;;
16391;SDS011;8305;-33.882;151.134;2022-08-01T02:16:27;1.77;;;0.50;;
16391;SDS011;8305;-33.882;151.134;2022-08-01T02:19:00;0.43;;;0.40;;
16391;SDS011;8305;-33.882;151.134;2022-08-01T02:21:35;2.33;;;0.50;;
16391;SDS011;8305;-33.882;151.134;2022-08-01T02:24:12;0.80;;;0.50;;
16391;SDS011;8305;-33.882;151.134;2022-08-01T02:26:47;1.02;;;0.55;;
16391;SDS011;8305;-33.882;151.134;2022-08-01T02:29:22;1.95;;;0.60;;
16391;SDS011;8305;-33.882;151.134;2022-08-01T02:31:58;3.65;;;0.70;;
16391;SDS011;8305;-33.882;151.134;2022-08-01T02:34:31;0.52;;;0.40;;
16391;SDS011;8305;-33.882;151.134;2022-08-01T02:37:04;0.82;;;0.60;;
16391;SDS011;8305;-33.882;151.134;2022-08-01T02:39:35;5.68;;;1.20;;
16391;SDS011;8305;-33.882;151.134;2022-08-01T02:42:09;1.10;;;0.70;;
16391;SDS011;8305;-33.882;151.134;2022-08-01T02:44:42;1.90;;;0.60;;
16391;SDS011;8305;-33.882;151.134;2022-08-01T02:47:16;0.68;;;0.50;;
16391;SDS011;8305;-33.882;151.134;2022-08-01T02:49:51;0.60;;;0.50;;
16391;SDS011;8305;-33.882;151.134;2022-08-01T02:52:23;3.00;;;0.70;;
16391;SDS011;8305;-33.882;151.134;2022-08-01T02:54:55;0.73;;;0.60;;
16391;SDS011;8305;-33.882;151.134;2022-08-01T02:57:27;1.33;;;0.55;;
16391;SDS011;8305;-33.882;151.134;2022-08-01T02:59:59;1.10;;;0.50;;
16391;SDS011;8305;-33.882;151.134;2022-08-01T03:02:33;1.48;;;0.60;;
16391;SDS011;8305;-33.882;151.134;2022-08-01T03:05:06;2.10;;;0.50;;
16391;SDS011;8305;-33.882;151.134;2022-08-01T03:07:38;1.50;;;0.50;;
16391;SDS011;8305;-33.882;151.134;2022-08-01T03:10:10;2.80;;;0.65;;
16391;SDS011;8305;-33.882;151.134;2022-08-01T03:12:42;0.40;;;0.40;;
16391;SDS011;8305;-33.882;151.134;2022-08-01T03:15:14;0.55;;;0.55;;
16391;SDS011;8305;-33.882;151.134;2022-08-01T03:17:49;0.77;;;0.50;;
16391;SDS011;8305;-33.882;151.134;2022-08-01T03:20:21;1.75;;;0.40;;
16391;SDS011;8305;-33.882;151.134;2022-08-01T03:22:53;0.55;;;0.50;;
16391;SDS011;8305;-33.882;151.134;2022-08-01T03:25:26;1.00;;;0.70;;
16391;SDS011;8305;-33.882;151.134;2022-08-01T03:27:58;0.65;;;0.47;;
16391;SDS011;8305;-33.882;151.134;2022-08-01T03:30:30;1.08;;;0.57;;
16391;SDS011;8305;-33.882;151.134;2022-08-01T03:33:05;1.45;;;0.50;;
16391;SDS011;8305;-33.882;151.134;2022-08-01T03:35:37;2.67;;;0.60;;
16391;SDS011;8305;-33.882;151.134;2022-08-01T03:38:17;0.70;;;0.43;;
16391;SDS011;8305;-33.882;151.134;2022-08-01T03:40:52;0.50;;;0.50;;
16391;SDS011;8305;-33.882;151.134;2022-08-01T03:43:33;0.60;;;0.50;;
16391;SDS011;8305;-33.882;151.134;2022-08-01T03:46:08;0.52;;;0.40;;
16391;SDS011;8305;-33.882;151.134;2022-08-01T03:48:58;1.15;;;0.45;;
16391;SDS011;8305;-33.882;151.134;2022-08-01T03:51:33;1.10;;;0.40;;
16391;SDS011;8305;-33.882;151.134;2022-08-01T03:54:05;2.03;;;0.45;;
16391;SDS011;8305;-33.882;151.134;2022-08-01T03:56:40;0.75;;;0.55;;
16391;SDS011;8305;-33.882;151.134;2022-08-01T03:59:12;0.63;;;0.40;;
16391;SDS011;8305;-33.882;151.134;2022-08-01T04:01:45;0.68;;;0.50;;
16391;SDS011;8305;-33.882;151.134;2022-08-01T04:04:18;0.40;;;0.40;;
16391;SDS011;8305;-33.882;151.134;2022-08-01T04:06:49;1.23;;;0.40;;
16391;SDS011;8305;-33.882;151.134;2022-08-01T04:09:21;0.57;;;0.20;;
16391;SDS011;8305;-33.882;151.134;2022-08-01T04:11:52;1.27;;;0.50;;
16391;SDS011;8305;-33.882;151.134;2022-08-01T04:14:23;0.80;;;0.30;;
16391;SDS011;8305;-33.882;151.134;2022-08-01T04:16:53;1.15;;;0.30;;
16391;SDS011;8305;-33.882;151.134;2022-08-01T04:19:26;0.70;;;0.30;;
16391;SDS011;8305;-33.882;151.134;2022-08-01T04:21:56;2.35;;;0.47;;
16391;SDS011;8305;-33.882;151.134;2022-08-01T04:24:28;0.82;;;0.40;;
16391;SDS011;8305;-33.882;151.134;2022-08-01T04:27:01;0.65;;;0.30;;
16391;SDS011;8305;-33.882;151.134;2022-08-01T04:29:35;0.90;;;0.30;;
16391;SDS011;8305;-33.882;151.134;2022-08-01T04:32:07;1.08;;;0.30;;
16391;SDS011;8305;-33.882;151.134;2022-08-01T04:34:43;1.67;;;0.40;;
16391;SDS011;8305;-33.882;151.134;2022-08-01T04:37:15;0.50;;;0.30;;
16391;SDS011;8305;-33.882;151.134;2022-08-01T04:39:49;1.60;;;0.30;;
16391;SDS011;8305;-33.882;151.134;2022-08-01T04:42:23;0.65;;;0.40;;
16391;SDS011;8305;-33.882;151.134;2022-08-01T04:44:53;1.02;;;0.40;;
16391;SDS011;8305;-33.882;151.134;2022-08-01T04:47:24;0.47;;;0.40;;
16391;SDS011;8305;-33.882;151.134;2022-08-01T04:49:58;1.40;;;0.60;;
16391;SDS011;8305;-33.882;151.134;2022-08-01T04:52:32;3.75;;;0.40;;
16391;SDS011;8305;-33.882;151.134;2022-08-01T04:55:04;1.80;;;0.43;;
16391;SDS011;8305;-33.882;151.134;2022-08-01T04:57:39;1.92;;;0.40;;
16391;SDS011;8305;-33.882;151.134;2022-08-01T05:00:12;0.20;;;0.20;;
16391;SDS011;8305;-33.882;151.134;2022-08-01T05:02:44;0.98;;;0.40;;
16391;SDS011;8305;-33.882;151.134;2022-08-01T05:05:18;1.83;;;0.52;;
16391;SDS011;8305;-33.882;151.134;2022-08-01T05:07:49;0.30;;;0.30;;
16391;SDS011;8305;-33.882;151.134;2022-08-01T05:10:19;1.40;;;0.30;;
16391;SDS011;8305;-33.882;151.134;2022-08-01T05:12:50;1.88;;;0.43;;
16391;SDS011;8305;-33.882;151.134;2022-08-01T05:15:21;1.40;;;0.30;;
16391;SDS011;8305;-33.882;151.134;2022-08-01T05:17:51;1.10;;;0.30;;
16391;SDS011;8305;-33.882;151.134;2022-08-01T05:20:24;0.32;;;0.20;;
16391;SDS011;8305;-33.882;151.134;2022-08-01T05:22:55;1.50;;;0.32;;
16391;SDS011;8305;-33.882;151.134;2022-08-01T05:25:25;0.30;;;0.30;;
16391;SDS011;8305;-33.882;151.134;2022-08-01T05:27:56;0.50;;;0.30;;
16391;SDS011;8305;-33.882;151.134;2022-08-01T05:30:27;0.45;;;0.30;;
16391;SDS011;8305;-33.882;151.134;2022-08-01T05:32:57;0.60;;;0.30;;
16391;SDS011;8305;-33.882;151.134;2022-08-01T05:35:30;0.32;;;0.30;;
16391;SDS011;8305;-33.882;151.134;2022-08-01T05:38:01;0.63;;;0.38;;
16391;SDS011;8305;-33.882;151.134;2022-08-01T05:40:31;0.88;;;0.25;;
16391;SDS011;8305;-33.882;151.134;2022-08-01T05:43:04;1.05;;;0.32;;
16391;SDS011;8305;-33.882;151.134;2022-08-01T05:45:34;1.65;;;0.38;;
16391;SDS011;8305;-33.882;151.134;2022-08-01T05:48:07;1.27;;;0.32;;
16391;SDS011;8305;-33.882;151.134;2022-08-01T05:50:40;0.90;;;0.30;;
16391;SDS011;8305;-33.882;151.134;2022-08-01T05:53:10;0.90;;;0.30;;
16391;SDS011;8305;-33.882;151.134;2022-08-01T05:55:41;0.30;;;0.30;;
16391;SDS011;8305;-33.882;151.134;2022-08-01T05:58:12;0.65;;;0.30;;
16391;SDS011;8305;-33.882;151.134;2022-08-01T06:00:42;0.30;;;0.30;;
16391;SDS011;8305;-33.882;151.134;2022-08-01T06:03:13;1.95;;;0.38;;
16391;SDS011;8305;-33.882;151.134;2022-08-01T06:05:45;0.57;;;0.30;;
16391;SDS011;8305;-33.882;151.134;2022-08-01T06:08:16;0.30;;;0.25;;
16391;SDS011;8305;-33.882;151.134;2022-08-01T06:10:47;0.30;;;0.30;;
16391;SDS011;8305;-33.882;151.134;2022-08-01T06:13:18;0.20;;;0.20;;
16391;SDS011;8305;-33.882;151.134;2022-08-01T06:15:48;0.30;;;0.30;;
16391;SDS011;8305;-33.882;151.134;2022-08-01T06:18:19;0.60;;;0.30;;
16391;SDS011;8305;-33.882;151.134;2022-08-01T06:20:52;0.82;;;0.50;;
16391;SDS011;8305;-33.882;151.134;2022-08-01T06:23:23;1.85;;;0.40;;
16391;SDS011;8305;-33.882;151.134;2022-08-01T06:25:53;0.40;;;0.35;;
16391;SDS011;8305;-33.882;151.134;2022-08-01T06:28:24;0.75;;;0.40;;
16391;SDS011;8305;-33.882;151.134;2022-08-01T06:30:55;0.30;;;0.30;;
16391;SDS011;8305;-33.882;151.134;2022-08-01T06:33:26;0.70;;;0.40;;
16391;SDS011;8305;-33.882;151.134;2022-08-01T06:35:59;0.98;;;0.40;;
16391;SDS011;8305;-33.882;151.134;2022-08-01T06:38:30;0.75;;;0.50;;
16391;SDS011;8305;-33.882;151.134;2022-08-01T06:41:01;0.47;;;0.30;;
16391;SDS011;8305;-33.882;151.134;2022-08-01T06:43:32;0.40;;;0.30;;
16391;SDS011;8305;-33.882;151.134;2022-08-01T06:46:02;0.57;;;0.38;;
16391;SDS011;8305;-33.882;151.134;2022-08-01T06:48:33;0.43;;;0.30;;
16391;SDS011;8305;-33.882;151.134;2022-08-01T06:51:07;0.30;;;0.30;;
16391;SDS011;8305;-33.882;151.134;2022-08-01T06:53:40;0.82;;;0.50;;
16391;SDS011;8305;-33.882;151.134;2022-08-01T06:56:10;0.40;;;0.40;;
16391;SDS011;8305;-33.882;151.134;2022-08-01T06:58:41;1.20;;;0.32;;
16391;SDS011;8305;-33.882;151.134;2022-08-01T07:01:11;0.73;;;0.40;;
16391;SDS011;8305;-33.882;151.134;2022-08-01T07:03:42;0.40;;;0.30;;
16391;SDS011;8305;-33.882;151.134;2022-08-01T07:06:15;0.40;;;0.40;;
16391;SDS011;8305;-33.882;151.134;2022-08-01T07:08:45;3.70;;;0.60;;
16391;SDS011;8305;-33.882;151.134;2022-08-01T07:11:16;1.40;;;0.50;;
16391;SDS011;8305;-33.882;151.134;2022-08-01T07:13:47;0.98;;;0.60;;
16391;SDS011;8305;-33.882;151.134;2022-08-01T07:16:17;0.55;;;0.47;;
16391;SDS011;8305;-33.882;151.134;2022-08-01T07:18:48;0.50;;;0.50;;
16391;SDS011;8305;-33.882;151.134;2022-08-01T07:21:20;0.88;;;0.60;;
16391;SDS011;8305;-33.882;151.134;2022-08-01T07:23:51;0.50;;;0.50;;
16391;SDS011;8305;-33.882;151.134;2022-08-01T07:26:22;1.48;;;0.73;;
16391;SDS011;8305;-33.882;151.134;2022-08-01T07:28:52;1.05;;;0.70;;
16391;SDS011;8305;-33.882;151.134;2022-08-01T07:31:23;0.95;;;0.70;;
16391;SDS011;8305;-33.882;151.134;2022-08-01T07:33:54;0.93;;;0.60;;
16391;SDS011;8305;-33.882;151.134;2022-08-01T07:36:26;2.35;;;0.70;;
16391;SDS011;8305;-33.882;151.134;2022-08-01T07:38:57;3.42;;;0.80;;
16391;SDS011;8305;-33.882;151.134;2022-08-01T07:41:28;1.33;;;0.80;;
16391;SDS011;8305;-33.882;151.134;2022-08-01T07:43:58;1.13;;;0.77;;
16391;SDS011;8305;-33.882;151.134;2022-08-01T07:46:29;0.70;;;0.70;;
16391;SDS011;8305;-33.882;151.134;2022-08-01T07:48:59;1.40;;;0.90;;
16391;SDS011;8305;-33.882;151.134;2022-08-01T07:51:32;3.63;;;1.00;;
16391;SDS011;8305;-33.882;151.134;2022-08-01T07:54:03;1.10;;;0.80;;
16391;SDS011;8305;-33.882;151.134;2022-08-01T07:56:33;1.02;;;0.70;;
16391;SDS011;8305;-33.882;151.134;2022-08-01T07:59:04;1.45;;;0.70;;
16391;SDS011;8305;-33.882;151.134;2022-08-01T08:01:35;0.90;;;0.60;;
16391;SDS011;8305;-33.882;151.134;2022-08-01T08:04:05;1.52;;;0.70;;
16391;SDS011;8305;-33.882;151.134;2022-08-01T08:06:38;1.42;;;0.82;;
16391;SDS011;8305;-33.882;151.134;2022-08-01T08:09:09;4.70;;;0.70;;
16391;SDS011;8305;-33.882;151.134;2022-08-01T08:11:39;3.15;;;0.80;;
16391;SDS011;8305;-33.882;151.134;2022-08-01T08:14:12;0.93;;;0.50;;
16391;SDS011;8305;-33.882;151.134;2022-08-01T08:16:42;0.65;;;0.57;;
16391;SDS011;8305;-33.882;151.134;2022-08-01T08:19:13;0.90;;;0.60;;
16391;SDS011;8305;-33.882;151.134;2022-08-01T08:21:46;3.05;;;0.77;;
16391;SDS011;8305;-33.882;151.134;2022-08-01T08:24:17;1.73;;;0.75;;
16391;SDS011;8305;-33.882;151.134;2022-08-01T08:26:47;1.00;;;0.70;;
16391;SDS011;8305;-33.882;151.134;2022-08-01T08:29:20;1.67;;;0.90;;
16391;SDS011;8305;-33.882;151.134;2022-08-01T08:31:52;2.38;;;0.77;;
16391;SDS011;8305;-33.882;151.134;2022-08-01T08:34:23;1.55;;;0.80;;
16391;SDS011;8305;-33.882;151.134;2022-08-01T08:36:56;1.23;;;0.70;;
16391;SDS011;8305;-33.882;151.134;2022-08-01T08:39:27;1.00;;;0.80;;
16391;SDS011;8305;-33.882;151.134;2022-08-01T08:41:59;2.05;;;1.05;;
16391;SDS011;8305;-33.882;151.134;2022-08-01T08:44:30;1.67;;;0.90;;
16391;SDS011;8305;-33.882;151.134;2022-08-01T08:47:01;2.05;;;1.10;;
16391;SDS011;8305;-33.882;151.134;2022-08-01T08:49:33;2.88;;;0.90;;
16391;SDS011;8305;-33.882;151.134;2022-08-01T08:52:08;3.72;;;1.15;;
16391;SDS011;8305;-33.882;151.134;2022-08-01T08:54:39;2.88;;;1.38;;
16391;SDS011;8305;-33.882;151.134;2022-08-01T08:57:11;4.47;;;1.35;;
16391;SDS011;8305;-33.882;151.134;2022-08-01T08:59:43;2.80;;;1.35;;
16391;SDS011;8305;-33.882;151.134;2022-08-01T09:02:14;2.38;;;1.13;;
16391;SDS011;8305;-33.882;151.134;2022-08-01T09:04:46;1.73;;;1.20;;
16391;SDS011;8305;-33.882;151.134;2022-08-01T09:07:19;2.20;;;1.30;;
16391;SDS011;8305;-33.882;151.134;2022-08-01T09:09:52;1.83;;;1.20;;
16391;SDS011;8305;-33.882;151.134;2022-08-01T09:12:22;1.58;;;1.20;;
16391;SDS011;8305;-33.882;151.134;2022-08-01T09:14:53;3.10;;;1.27;;
16391;SDS011;8305;-33.882;151.134;2022-08-01T09:17:24;2.92;;;1.30;;
16391;SDS011;8305;-33.882;151.134;2022-08-01T09:19:55;2.45;;;1.65;;
16391;SDS011;8305;-33.882;151.134;2022-08-01T09:22:28;2.85;;;1.60;;
16391;SDS011;8305;-33.882;151.134;2022-08-01T09:25:03;3.88;;;2.03;;
16391;SDS011;8305;-33.882;151.134;2022-08-01T09:27:36;5.15;;;2.38;;
16391;SDS011;8305;-33.882;151.134;2022-08-01T09:30:07;4.70;;;2.20;;
16391;SDS011;8305;-33.882;151.134;2022-08-01T09:32:53;4.25;;;2.10;;
16391;SDS011;8305;-33.882;151.134;2022-08-01T09:35:26;2.78;;;1.70;;
16391;SDS011;8305;-33.882;151.134;2022-08-01T09:38:16;2.50;;;1.55;;
16391;SDS011;8305;-33.882;151.134;2022-08-01T09:40:48;3.58;;;1.40;;
16391;SDS011;8305;-33.882;151.134;2022-08-01T09:43:20;3.35;;;1.60;;
16391;SDS011;8305;-33.882;151.134;2022-08-01T09:45:52;4.18;;;1.60;;
16391;SDS011;8305;-33.882;151.134;2022-08-01T09:48:24;3.15;;;1.40;;
16391;SDS011;8305;-33.882;151.134;2022-08-01T09:50:56;4.22;;;1.52;;
16391;SDS011;8305;-33.882;151.134;2022-08-01T09:53:29;2.13;;;1.35;;
16391;SDS011;8305;-33.882;151.134;2022-08-01T09:56:10;2.75;;;1.40;;
16391;SDS011;8305;-33.882;151.134;2022-08-01T09:58:51;2.45;;;1.67;;
16391;SDS011;8305;-33.882;151.134;2022-08-01T10:01:23;3.38;;;1.77;;
16391;SDS011;8305;-33.882;151.134;2022-08-01T10:04:07;3.53;;;1.88;;
16391;SDS011;8305;-33.882;151.134;2022-08-01T10:06:39;2.65;;;1.67;;
16391;SDS011;8305;-33.882;151.134;2022-08-01T10:09:13;3.03;;;1.83;;
16391;SDS011;8305;-33.882;151.134;2022-08-01T10:11:44;3.30;;;1.70;;
16391;SDS011;8305;-33.882;151.134;2022-08-01T10:14:14;3.88;;;1.70;;
16391;SDS011;8305;-33.882;151.134;2022-08-01T10:16:46;3.70;;;1.67;;
16391;SDS011;8305;-33.882;151.134;2022-08-01T10:19:18;3.58;;;1.55;;
16391;SDS011;8305;-33.882;151.134;2022-08-01T10:21:50;2.60;;;1.63;;
16391;SDS011;8305;-33.882;151.134;2022-08-01T10:24:24;3.28;;;1.80;;
16391;SDS011;8305;-33.882;151.134;2022-08-01T10:26:57;3.55;;;1.80;;
16391;SDS011;8305;-33.882;151.134;2022-08-01T10:29:32;2.92;;;2.15;;
16391;SDS011;8305;-33.882;151.134;2022-08-01T10:32:06;3.20;;;2.00;;
16391;SDS011;8305;-33.882;151.134;2022-08-01T10:34:37;4.47;;;2.20;;
16391;SDS011;8305;-33.882;151.134;2022-08-01T10:37:08;4.32;;;2.20;;
16391;SDS011;8305;-33.882;151.134;2022-08-01T10:39:44;3.08;;;1.98;;
16391;SDS011;8305;-33.882;151.134;2022-08-01T10:42:15;4.57;;;2.20;;
16391;SDS011;8305;-33.882;151.134;2022-08-01T10:44:46;4.40;;;1.95;;
16391;SDS011;8305;-33.882;151.134;2022-08-01T10:47:18;3.42;;;1.90;;
16391;SDS011;8305;-33.882;151.134;2022-08-01T10:50:04;3.50;;;1.90;;
16391;SDS011;8305;-33.882;151.134;2022-08-01T10:52:42;4.43;;;2.00;;
16391;SDS011;8305;-33.882;151.134;2022-08-01T10:55:47;5.07;;;1.70;;
16391;SDS011;8305;-33.882;151.134;2022-08-01T10:58:22;3.47;;;1.98;;
16391;SDS011;8305;-33.882;151.134;2022-08-01T11:01:17;3.20;;;1.70;;
16391;SDS011;8305;-33.882;151.134;2022-08-01T11:04:06;2.53;;;1.58;;
16391;SDS011;8305;-33.882;151.134;2022-08-01T11:06:42;3.47;;;1.77;;
16391;SDS011;8305;-33.882;151.134;2022-08-01T11:09:26;4.03;;;1.63;;
16391;SDS011;8305;-33.882;151.134;2022-08-01T11:12:05;2.15;;;1.60;;
16391;SDS011;8305;-33.882;151.134;2022-08-01T11:17:50;3.17;;;1.65;;
16391;SDS011;8305;-33.882;151.134;2022-08-01T11:20:22;3.17;;;1.73;;
16391;SDS011;8305;-33.882;151.134;2022-08-01T11:26:13;2.97;;;1.63;;
16391;SDS011;8305;-33.882;151.134;2022-08-01T11:28:48;2.72;;;1.83;;
16391;SDS011;8305;-33.882;151.134;2022-08-01T11:31:43;3.78;;;1.60;;
16391;SDS011;8305;-33.882;151.134;2022-08-01T11:34:14;2.38;;;1.63;;
16391;SDS011;8305;-33.882;151.134;2022-08-01T11:36:45;2.33;;;1.42;;
16391;SDS011;8305;-33.882;151.134;2022-08-01T11:39:16;2.78;;;1.40;;
16391;SDS011;8305;-33.882;151.134;2022-08-01T11:41:48;2.20;;;1.45;;
16391;SDS011;8305;-33.882;151.134;2022-08-01T11:44:23;2.08;;;1.20;;
16391;SDS011;8305;-33.882;151.134;2022-08-01T11:46:55;2.05;;;1.30;;
16391;SDS011;8305;-33.882;151.134;2022-08-01T11:52:24;2.92;;;1.60;;
16391;SDS011;8305;-33.882;151.134;2022-08-01T11:55:04;2.47;;;1.35;;
16391;SDS011;8305;-33.882;151.134;2022-08-01T11:57:36;3.05;;;1.50;;
16391;SDS011;8305;-33.882;151.134;2022-08-01T12:00:12;4.03;;;1.60;;
16391;SDS011;8305;-33.882;151.134;2022-08-01T12:02:45;2.00;;;1.27;;
16391;SDS011;8305;-33.882;151.134;2022-08-01T12:05:25;1.77;;;1.33;;
16391;SDS011;8305;-33.882;151.134;2022-08-01T12:07:56;2.28;;;1.27;;
16391;SDS011;8305;-33.882;151.134;2022-08-01T12:10:27;2.17;;;1.00;;
16391;SDS011;8305;-33.882;151.134;2022-08-01T12:13:02;2.85;;;1.20;;
16391;SDS011;8305;-33.882;151.134;2022-08-01T12:15:36;5.95;;;1.30;;
16391;SDS011;8305;-33.882;151.134;2022-08-01T12:18:07;2.47;;;1.38;;
16391;SDS011;8305;-33.882;151.134;2022-08-01T12:20:38;3.63;;;1.30;;
16391;SDS011;8305;-33.882;151.134;2022-08-01T12:23:11;3.17;;;1.48;;
16391;SDS011;8305;-33.882;151.134;2022-08-01T12:25:43;2.67;;;1.70;;
16391;SDS011;8305;-33.882;151.134;2022-08-01T12:28:19;3.47;;;1.63;;
16391;SDS011;8305;-33.882;151.134;2022-08-01T12:30:52;2.63;;;1.65;;
16391;SDS011;8305;-33.882;151.134;2022-08-01T12:33:23;4.55;;;1.50;;
16391;SDS011;8305;-33.882;151.134;2022-08-01T12:35:53;2.55;;;1.50;;
16391;SDS011;8305;-33.882;151.134;2022-08-01T12:38:24;2.83;;;1.60;;
16391;SDS011;8305;-33.882;151.134;2022-08-01T12:40:58;3.83;;;1.70;;
16391;SDS011;8305;-33.882;151.134;2022-08-01T12:43:30;4.88;;;1.73;;
16391;SDS011;8305;-33.882;151.134;2022-08-01T12:46:04;5.07;;;1.83;;
16391;SDS011;8305;-33.882;151.134;2022-08-01T12:48:37;2.33;;;1.63;;
16391;SDS011;8305;-33.882;151.134;2022-08-01T12:51:08;2.88;;;1.88;;
16391;SDS011;8305;-33.882;151.134;2022-08-01T12:53:39;2.40;;;1.63;;
16391;SDS011;8305;-33.882;151.134;2022-08-01T12:56:09;2.25;;;1.80;;
16391;SDS011;8305;-33.882;151.134;2022-08-01T12:58:40;4.20;;;1.80;;
16391;SDS011;8305;-33.882;151.134;2022-08-01T13:01:13;3.63;;;1.98;;
16391;SDS011;8305;-33.882;151.134;2022-08-01T13:03:57;3.50;;;1.80;;
16391;SDS011;8305;-33.882;151.134;2022-08-01T13:06:30;4.10;;;1.80;;
16391;SDS011;8305;-33.882;151.134;2022-08-01T13:09:08;3.15;;;1.80;;
16391;SDS011;8305;-33.882;151.134;2022-08-01T13:11:39;2.63;;;1.80;;
16391;SDS011;8305;-33.882;151.134;2022-08-01T13:14:25;3.25;;;1.95;;
16391;SDS011;8305;-33.882;151.134;2022-08-01T13:16:58;3.72;;;1.90;;
16391;SDS011;8305;-33.882;151.134;2022-08-01T13:19:41;3.58;;;1.70;;
16391;SDS011;8305;-33.882;151.134;2022-08-01T13:22:13;5.03;;;2.17;;
16391;SDS011;8305;-33.882;151.134;2022-08-01T13:24:43;3.53;;;1.90;;
16391;SDS011;8305;-33.882;151.134;2022-08-01T13:27:20;3.42;;;1.83;;
16391;SDS011;8305;-33.882;151.134;2022-08-01T13:29:56;2.95;;;1.83;;
16391;SDS011;8305;-33.882;151.134;2022-08-01T13:32:43;4.28;;;1.67;;
16391;SDS011;8305;-33.882;151.134;2022-08-01T13:35:25;2.60;;;1.80;;
16391;SDS011;8305;-33.882;151.134;2022-08-01T13:37:56;3.50;;;1.80;;
16391;SDS011;8305;-33.882;151.134;2022-08-01T13:40:29;3.38;;;1.88;;
16391;SDS011;8305;-33.882;151.134;2022-08-01T13:43:00;6.30;;;2.00;;
16391;SDS011;8305;-33.882;151.134;2022-08-01T13:45:31;3.83;;;2.00;;
16391;SDS011;8305;-33.882;151.134;2022-08-01T13:48:04;3.33;;;1.63;;
16391;SDS011;8305;-33.882;151.134;2022-08-01T13:50:35;4.22;;;1.70;;
16391;SDS011;8305;-33.882;151.134;2022-08-01T13:53:05;4.22;;;2.17;;
16391;SDS011;8305;-33.882;151.134;2022-08-01T13:55:37;3.72;;;1.77;;
16391;SDS011;8305;-33.882;151.134;2022-08-01T13:58:07;3.60;;;1.90;;
16391;SDS011;8305;-33.882;151.134;2022-08-01T14:00:38;3.72;;;1.73;;
16391;SDS011;8305;-33.882;151.134;2022-08-01T14:03:10;3.13;;;2.10;;
16391;SDS011;8305;-33.882;151.134;2022-08-01T14:05:42;2.78;;;1.83;;
16391;SDS011;8305;-33.882;151.134;2022-08-01T14:08:13;3.53;;;1.90;;
16391;SDS011;8305;-33.882;151.134;2022-08-01T14:10:44;4.20;;;1.83;;
16391;SDS011;8305;-33.882;151.134;2022-08-01T14:13:14;6.03;;;2.10;;
16391;SDS011;8305;-33.882;151.134;2022-08-01T14:15:45;3.08;;;1.98;;
16391;SDS011;8305;-33.882;151.134;2022-08-01T14:18:18;3.63;;;1.90;;
16391;SDS011;8305;-33.882;151.134;2022-08-01T14:20:49;2.60;;;1.88;;
16391;SDS011;8305;-33.882;151.134;2022-08-01T14:23:19;3.97;;;2.10;;
16391;SDS011;8305;-33.882;151.134;2022-08-01T14:25:50;4.40;;;2.00;;
16391;SDS011;8305;-33.882;151.134;2022-08-01T14:28:21;4.93;;;2.40;;
16391;SDS011;8305;-33.882;151.134;2022-08-01T14:30:53;3.30;;;2.08;;
16391;SDS011;8305;-33.882;151.134;2022-08-01T14:33:26;3.33;;;2.03;;
16391;SDS011;8305;-33.882;151.134;2022-08-01T14:35:57;5.78;;;2.35;;
16391;SDS011;8305;-33.882;151.134;2022-08-01T14:38:27;3.55;;;2.00;;
16391;SDS011;8305;-33.882;151.134;2022-08-01T14:40:58;3.95;;;2.22;;
16391;SDS011;8305;-33.882;151.134;2022-08-01T14:43:29;4.85;;;2.33;;
16391;SDS011;8305;-33.882;151.134;2022-08-01T14:46:00;4.15;;;2.35;;
16391;SDS011;8305;-33.882;151.134;2022-08-01T14:48:33;5.63;;;2.42;;
16391;SDS011;8305;-33.882;151.134;2022-08-01T14:51:04;3.50;;;2.00;;
16391;SDS011;8305;-33.882;151.134;2022-08-01T14:53:34;4.03;;;2.40;;
16391;SDS011;8305;-33.882;151.134;2022-08-01T14:56:05;5.90;;;2.65;;
16391;SDS011;8305;-33.882;151.134;2022-08-01T14:58:36;6.38;;;2.60;;
16391;SDS011;8305;-33.882;151.134;2022-08-01T15:01:07;4.60;;;2.35;;
16391;SDS011;8305;-33.882;151.134;2022-08-01T15:03:40;4.25;;;2.30;;